Time;durP1;ratioP1;P1;durP2;ratioP2;P2;SDS_P1;SDS_P2;PMS_P1;PMS_P2;Temp;Humidity;BMP_temperature;BMP_pressure;BME280_temperature;BME280_humidity;BME280_pressure;Samples;Min_cycle;Max_cycle;Signal;HPM_P1;HPM_P2
2021/08/08 00:01:49;;;;;;;;;1.00;1.00;;;;;20.01;54.39;100301.22;5068638;28;46103;-63
2021/08/08 00:04:14;;;;;;;;;4.00;2.00;;;;;19.97;54.44;100305.09;5077569;27;45509;-63
2021/08/08 00:06:40;;;;;;;;;1.67;1.00;;;;;19.96;55.04;100311.44;5072074;28;45669;-63
2021/08/08 00:09:07;;;;;;;;;3.33;1.67;;;;;19.92;54.72;100309.91;5074384;27;47494;-63
2021/08/08 00:11:32;;;;;;;;;2.00;2.00;;;;;19.90;54.94;100320.78;5069633;28;45282;-63
2021/08/08 00:13:58;;;;;;;;;1.33;1.33;;;;;19.86;55.14;100311.19;5063358;28;45370;-63
2021/08/08 00:16:25;;;;;;;;;0.33;0.33;;;;;19.84;54.83;100310.44;5070987;28;45869;-64
2021/08/08 00:18:50;;;;;;;;;1.67;1.67;;;;;19.84;55.19;100321.22;5071649;27;48386;-64
2021/08/08 00:21:16;;;;;;;;;1.33;1.33;;;;;19.81;55.17;100316.00;5064957;28;45766;-64
2021/08/08 00:23:41;;;;;;;;;3.00;3.00;;;;;19.80;54.93;100324.19;5070036;28;45413;-63
2021/08/08 00:26:07;;;;;;;;;3.33;3.00;;;;;19.76;55.12;100325.38;5070882;28;45781;-64
2021/08/08 00:28:32;;;;;;;;;2.33;2.33;;;;;19.75;55.20;100334.41;5071568;27;47337;-64
2021/08/08 00:30:58;;;;;;;;;4.00;3.00;;;;;19.71;55.00;100327.50;5065634;28;45342;-64
2021/08/08 00:33:24;;;;;;;;;2.00;2.00;;;;;19.69;55.39;100323.09;5071340;27;45436;-64
2021/08/08 00:35:50;;;;;;;;;2.00;2.00;;;;;19.66;55.67;100322.41;5069742;28;45514;-64
2021/08/08 00:38:15;;;;;;;;;3.33;3.33;;;;;19.64;55.93;100327.91;5064427;27;48149;-63
2021/08/08 00:40:43;;;;;;;;;1.33;1.33;;;;;19.62;55.84;100331.66;5065099;28;45366;-64
2021/08/08 00:43:10;;;;;;;;;2.00;2.00;;;;;19.60;55.94;100328.22;5070860;27;45594;-63
2021/08/08 00:45:36;;;;;;;;;1.00;1.00;;;;;19.60;55.42;100336.28;5071552;28;45610;-64
2021/08/08 00:48:02;;;;;;;;;1.33;1.00;;;;;19.58;56.04;100328.31;5066091;28;46942;-64
2021/08/08 00:50:27;;;;;;;;;3.67;3.67;;;;;19.56;55.73;100321.28;5070117;28;45431;-63
2021/08/08 00:52:53;;;;;;;;;3.00;3.00;;;;;19.54;56.15;100329.41;5068801;27;45632;-63
2021/08/08 00:55:18;;;;;;;;;1.67;1.67;;;;;19.53;55.76;100327.69;5071876;28;45621;-63
2021/08/08 00:57:43;;;;;;;;;4.00;2.67;;;;;19.51;55.90;100334.16;5073755;27;47936;-64
2021/08/08 01:00:10;;;;;;;;;5.33;3.00;;;;;19.48;56.05;100335.22;5074173;27;45348;-63
2021/08/08 01:02:47;;;;;;;;;3.00;3.00;;;;;19.46;55.92;100329.06;5070080;28;45632;-63
2021/08/08 01:05:16;;;;;;;;;2.00;2.00;;;;;19.45;56.14;100338.13;5075518;28;45590;-63
2021/08/08 01:07:49;;;;;;;;;2.00;2.00;;;;;19.44;56.50;100332.81;5073422;27;48398;-64
2021/08/08 01:10:15;;;;;;;;;3.67;2.67;;;;;19.41;56.33;100334.72;5076023;27;45385;-63
2021/08/08 01:12:41;;;;;;;;;1.00;1.00;;;;;19.41;56.27;100336.56;5062784;27;45284;-63
2021/08/08 01:15:07;;;;;;;;;2.00;2.00;;;;;19.40;56.35;100337.53;5074249;28;45292;-64
2021/08/08 01:17:34;;;;;;;;;2.00;2.00;;;;;19.39;56.31;100338.50;5067128;27;48345;-63
2021/08/08 01:20:07;;;;;;;;;4.33;3.00;;;;;19.38;56.26;100334.06;5073432;28;45489;-63
2021/08/08 01:22:34;;;;;;;;;2.67;2.00;;;;;19.39;56.68;100325.03;5069774;27;45371;-64
2021/08/08 01:25:01;;;;;;;;;3.00;2.00;;;;;19.38;56.12;100334.94;5074270;27;45325;-63
2021/08/08 01:27:27;;;;;;;;;3.00;3.00;;;;;19.38;56.51;100332.25;5068962;27;48468;-63
2021/08/08 01:29:53;;;;;;;;;3.00;3.00;;;;;19.37;56.78;100335.91;5069905;28;45289;-64
2021/08/08 01:32:19;;;;;;;;;1.33;1.33;;;;;19.38;56.39;100342.16;5058084;28;45403;-63
2021/08/08 01:34:47;;;;;;;;;2.33;2.33;;;;;19.37;56.54;100333.22;5073854;27;45618;-63
2021/08/08 01:37:15;;;;;;;;;2.00;2.00;;;;;19.38;56.75;100340.31;5068564;27;47250;-63
2021/08/08 01:39:43;;;;;;;;;4.67;3.00;;;;;19.41;56.56;100336.56;5043272;28;45493;-63
2021/08/08 01:42:10;;;;;;;;;2.67;2.67;;;;;19.42;56.44;100330.22;5069278;28;45671;-63
2021/08/08 01:44:42;;;;;;;;;6.00;3.00;;;;;19.44;56.99;100340.88;5072891;27;45551;-63
2021/08/08 01:47:11;;;;;;;;;3.33;3.00;;;;;19.45;56.95;100340.81;5062671;28;47290;-64
2021/08/08 01:49:38;;;;;;;;;3.00;3.00;;;;;19.46;57.06;100338.97;5067679;28;45759;-64
2021/08/08 01:52:06;;;;;;;;;4.00;4.00;;;;;19.48;56.91;100339.72;5074707;28;45384;-64
2021/08/08 01:54:31;;;;;;;;;2.67;2.67;;;;;19.49;56.75;100342.31;5066720;27;45353;-65
2021/08/08 01:56:57;;;;;;;;;3.00;3.00;;;;;19.53;56.86;100337.59;5062293;28;45397;-64
2021/08/08 01:59:22;;;;;;;;;2.33;2.33;;;;;19.55;56.58;100336.56;5058441;28;45555;-63
2021/08/08 02:01:48;;;;;;;;;5.00;3.00;;;;;19.58;56.54;100335.53;5063930;28;45629;-63
2021/08/08 02:04:19;;;;;;;;;4.33;3.33;;;;;19.60;56.59;100341.66;5059658;28;46678;-64
2021/08/08 02:06:44;;;;;;;;;2.00;2.00;;;;;19.60;57.00;100342.53;5060784;28;47200;-63
2021/08/08 02:09:10;;;;;;;;;3.00;2.00;;;;;19.62;57.07;100337.03;5066381;28;45551;-63
2021/08/08 02:11:36;;;;;;;;;2.33;2.00;;;;;19.63;57.04;100341.47;5059919;28;45693;-64
2021/08/08 02:14:02;;;;;;;;;3.00;3.00;;;;;19.64;56.48;100349.44;5057429;28;45293;-63
2021/08/08 02:16:27;;;;;;;;;2.00;2.00;;;;;19.64;56.95;100351.25;5059760;28;45248;-64
2021/08/08 02:18:53;;;;;;;;;2.67;2.67;;;;;19.63;57.02;100349.53;5060332;28;45367;-63
2021/08/08 02:21:18;;;;;;;;;3.00;3.00;;;;;19.62;56.84;100351.38;5055431;28;45606;-64
2021/08/08 02:23:43;;;;;;;;;3.33;1.00;;;;;19.63;56.79;100355.78;5060125;28;45355;-63
2021/08/08 02:26:09;;;;;;;;;3.00;3.00;;;;;19.63;56.87;100354.91;5054411;28;48332;-64
2021/08/08 02:28:34;;;;;;;;;4.33;2.67;;;;;19.64;56.67;100362.03;5059111;28;45302;-46
2021/08/08 02:31:00;;;;;;;;;3.00;3.00;;;;;19.62;56.60;100362.13;5058714;28;45456;-49
2021/08/08 02:33:25;;;;;;;;;1.67;1.67;;;;;19.61;57.01;100362.22;5059845;28;45389;-53
2021/08/08 02:35:51;;;;;;;;;2.00;2.00;;;;;19.59;56.74;100367.72;5059715;28;47335;-50
2021/08/08 02:38:16;;;;;;;;;5.00;3.00;;;;;19.57;56.73;100369.66;5058853;28;45666;-53
2021/08/08 02:40:42;;;;;;;;;1.67;1.67;;;;;19.56;56.63;100367.03;5057845;28;45757;-53
2021/08/08 02:43:07;;;;;;;;;4.33;3.00;;;;;19.53;56.64;100370.75;5059636;28;45467;-48
2021/08/08 02:45:33;;;;;;;;;4.00;3.00;;;;;19.50;56.98;100367.41;5057594;28;47089;-52
2021/08/08 02:47:58;;;;;;;;;1.00;1.00;;;;;19.48;56.92;100366.66;5059798;28;45666;-50
2021/08/08 02:50:24;;;;;;;;;2.67;2.67;;;;;19.42;56.91;100371.44;5057787;28;45367;-52
2021/08/08 02:52:53;;;;;;;;;3.00;2.67;;;;;19.40;56.94;100375.19;5059487;28;45370;-51
2021/08/08 02:55:19;;;;;;;;;2.00;2.00;;;;;19.37;57.14;100372.72;5059381;28;47428;-51
2021/08/08 02:57:44;;;;;;;;;3.00;3.00;;;;;19.34;57.04;100372.91;5059018;28;45775;-53
2021/08/08 03:00:10;;;;;;;;;2.00;2.00;;;;;19.33;56.98;100379.25;5063687;28;45646;-53
2021/08/08 03:02:36;;;;;;;;;4.00;4.00;;;;;19.34;57.19;100375.59;5061097;27;45526;-55
2021/08/08 03:05:01;;;;;;;;;2.00;2.00;;;;;19.33;57.47;100384.63;5065853;28;47312;-54
2021/08/08 03:07:27;;;;;;;;;3.00;3.00;;;;;19.33;57.50;100382.81;5065966;27;45963;-54
2021/08/08 03:09:52;;;;;;;;;4.00;4.00;;;;;19.33;57.36;100390.03;5065300;28;45494;-55
2021/08/08 03:12:18;;;;;;;;;4.00;4.00;;;;;19.33;57.41;100381.94;5054046;28;45385;-55
2021/08/08 03:14:43;;;;;;;;;2.67;2.00;;;;;19.32;57.38;100383.78;5069225;28;48161;-53
2021/08/08 03:17:09;;;;;;;;;2.33;2.33;;;;;19.30;57.55;100390.19;5085956;27;45781;-52
2021/08/08 03:19:34;;;;;;;;;3.00;3.00;;;;;19.29;57.34;100388.47;5063765;28;45460;-55
2021/08/08 03:22:00;;;;;;;;;3.33;3.00;;;;;19.30;57.25;100395.56;5060309;27;45282;-55
2021/08/08 03:24:26;;;;;;;;;3.00;2.00;;;;;19.29;57.60;100391.16;5063322;28;47320;-53
2021/08/08 03:26:51;;;;;;;;;3.00;1.67;;;;;19.29;57.39;100393.84;5062122;27;45715;-55
2021/08/08 03:29:16;;;;;;;;;2.67;2.67;;;;;19.28;57.61;100398.34;5066424;28;45324;-55
2021/08/08 03:31:42;;;;;;;;;3.67;3.67;;;;;19.25;57.21;100401.25;5062468;27;45504;-55
2021/08/08 03:34:08;;;;;;;;;5.00;4.00;;;;;19.24;57.73;100395.97;5063509;28;46874;-54
2021/08/08 03:36:33;;;;;;;;;3.00;3.00;;;;;19.23;57.59;100396.94;5063004;28;46126;-55
2021/08/08 03:38:59;;;;;;;;;3.00;3.00;;;;;19.23;57.55;100402.31;5062978;28;46237;-54
2021/08/08 03:41:24;;;;;;;;;7.00;4.00;;;;;19.23;57.41;100402.31;5063458;28;45666;-55
2021/08/08 03:43:50;;;;;;;;;8.00;4.67;;;;;19.21;57.43;100398.84;5061236;28;47153;-55
2021/08/08 03:46:16;;;;;;;;;3.00;3.00;;;;;19.20;57.76;100411.44;5059140;27;46026;-54
2021/08/08 03:48:42;;;;;;;;;3.67;3.67;;;;;19.18;57.49;100410.66;5063959;28;45841;-55
2021/08/08 03:51:07;;;;;;;;;3.00;3.00;;;;;19.16;57.59;100409.88;5058639;27;45229;-54
2021/08/08 03:53:33;;;;;;;;;3.00;3.00;;;;;19.13;57.52;100412.78;5065328;28;47179;-53
2021/08/08 03:55:58;;;;;;;;;4.00;4.00;;;;;19.10;57.71;100408.47;5064224;28;45401;-55
2021/08/08 03:58:29;;;;;;;;;4.67;4.67;;;;;19.10;57.89;100415.66;5058941;28;45818;-54
2021/08/08 04:00:57;;;;;;;;;4.00;4.00;;;;;19.07;57.88;100413.16;5057971;28;45591;-52
2021/08/08 04:03:22;;;;;;;;;6.00;4.00;;;;;19.04;57.99;100414.19;5064467;28;47808;-54
2021/08/08 04:05:47;;;;;;;;;3.67;3.67;;;;;19.03;57.27;100408.91;5063981;28;45783;-53
2021/08/08 04:08:13;;;;;;;;;4.67;3.33;;;;;19.00;57.55;100420.72;5062020;28;45392;-55
2021/08/08 04:10:38;;;;;;;;;4.00;3.00;;;;;18.98;57.89;100411.91;5058434;28;45405;-53
2021/08/08 04:13:04;;;;;;;;;5.00;5.00;;;;;18.97;57.97;100423.63;5091290;27;49270;-55
2021/08/08 04:15:29;;;;;;;;;4.67;4.00;;;;;18.95;57.85;100424.69;5056241;27;45563;-56
2021/08/08 04:17:55;;;;;;;;;3.00;3.00;;;;;18.91;57.69;100425.81;5058491;28;45709;-56
2021/08/08 04:20:20;;;;;;;;;3.00;3.00;;;;;18.89;57.75;100430.41;5055829;28;45422;-55
2021/08/08 04:22:45;;;;;;;;;3.67;3.00;;;;;18.87;57.74;100425.13;5056484;28;47213;-54
2021/08/08 04:25:11;;;;;;;;;4.33;3.00;;;;;18.86;58.11;100431.47;5058101;28;45514;-53
2021/08/08 04:27:36;;;;;;;;;5.00;4.00;;;;;18.85;58.07;100434.25;5057095;28;45448;-54
2021/08/08 04:30:03;;;;;;;;;4.00;4.00;;;;;18.85;57.92;100440.50;5057927;28;45598;-54
2021/08/08 04:32:28;;;;;;;;;4.00;4.00;;;;;18.87;57.77;100452.00;5050254;27;48121;-54
2021/08/08 04:34:53;;;;;;;;;4.00;4.00;;;;;18.87;57.85;100445.78;5056305;28;45263;-55
2021/08/08 04:37:19;;;;;;;;;3.67;3.67;;;;;18.83;57.92;100445.09;5057959;28;46867;-55
2021/08/08 04:39:47;;;;;;;;;4.00;4.00;;;;;18.82;57.97;100454.13;5053296;28;46431;-54
2021/08/08 04:42:13;;;;;;;;;4.00;4.00;;;;;18.81;57.91;100449.72;5078980;27;45537;-52
2021/08/08 04:44:38;;;;;;;;;3.67;3.67;;;;;18.81;58.09;100453.25;5054882;28;45702;-59
2021/08/08 04:47:03;;;;;;;;;3.00;3.00;;;;;18.84;57.90;100451.34;5077915;27;47011;-54
2021/08/08 04:49:29;;;;;;;;;4.00;3.33;;;;;18.83;57.96;100445.09;5054517;28;45543;-53
2021/08/08 04:51:54;;;;;;;;;5.33;4.00;;;;;18.85;57.92;100443.19;5055491;28;47167;-53
2021/08/08 04:54:20;;;;;;;;;6.00;6.00;;;;;18.87;57.72;100454.72;5052581;28;45790;-54
2021/08/08 04:56:45;;;;;;;;;3.00;3.00;;;;;18.86;57.57;100450.28;5056509;28;45483;-54
2021/08/08 04:59:11;;;;;;;;;3.00;3.00;;;;;18.85;57.70;100453.06;5050157;28;45918;-55
2021/08/08 05:01:39;;;;;;;;;4.00;4.00;;;;;18.85;57.23;100453.94;5046285;28;48407;-54
2021/08/08 05:04:04;;;;;;;;;2.00;2.00;;;;;18.84;57.25;100457.59;5052875;28;45456;-53
2021/08/08 05:06:29;;;;;;;;;4.00;4.00;;;;;18.85;57.51;100458.44;5054509;28;45340;-52
2021/08/08 05:08:55;;;;;;;;;5.67;5.67;;;;;18.86;57.17;100461.03;5053979;28;45393;-54
2021/08/08 05:11:20;;;;;;;;;4.00;3.00;;;;;18.87;57.38;100459.22;5053868;28;46661;-56
2021/08/08 05:13:46;;;;;;;;;4.00;4.00;;;;;18.85;56.92;100458.44;5052734;28;45496;-55
2021/08/08 05:16:13;;;;;;;;;6.00;3.33;;;;;18.84;56.98;100464.78;5054801;28;45392;-55
2021/08/08 05:18:38;;;;;;;;;3.00;3.00;;;;;18.84;57.03;100462.09;5050093;28;45626;-56
2021/08/08 05:21:04;;;;;;;;;3.67;3.67;;;;;18.84;57.12;100464.78;5051080;28;48213;-56
2021/08/08 05:23:29;;;;;;;;;5.00;4.00;;;;;18.83;57.20;100466.63;5055660;28;45552;-56
2021/08/08 05:25:59;;;;;;;;;3.67;2.67;;;;;18.84;57.03;100465.66;5051031;28;45496;-54
2021/08/08 05:28:25;;;;;;;;;3.00;3.00;;;;;18.87;56.96;100467.28;5059523;28;45662;-55
2021/08/08 05:30:51;;;;;;;;;4.67;3.00;;;;;18.90;56.84;100456.34;5049788;28;48509;-55
2021/08/08 05:33:16;;;;;;;;;3.00;3.00;;;;;18.91;56.87;100461.63;5058826;28;45784;-58
2021/08/08 05:35:42;;;;;;;;;3.00;3.00;;;;;18.94;56.73;100457.91;5056888;28;45381;-56
2021/08/08 05:38:07;;;;;;;;;4.33;4.33;;;;;18.94;56.77;100450.69;5057116;28;45398;-55
2021/08/08 05:40:33;;;;;;;;;6.00;3.67;;;;;18.94;56.74;100461.47;5051139;28;48028;-56
2021/08/08 05:42:58;;;;;;;;;2.67;2.67;;;;;18.92;56.81;100455.28;5057257;28;45940;-54
2021/08/08 05:45:24;;;;;;;;;5.00;4.00;;;;;18.92;56.71;100460.66;5060836;28;46176;-55
2021/08/08 05:47:50;;;;;;;;;2.00;2.00;;;;;18.93;57.11;100459.72;5055000;28;45733;-53
2021/08/08 05:50:15;;;;;;;;;3.00;3.00;;;;;18.95;56.63;100473.94;5055651;28;47092;-57
2021/08/08 05:52:47;;;;;;;;;3.00;3.00;;;;;18.97;56.58;100468.47;5049457;28;45669;-55
2021/08/08 05:55:12;;;;;;;;;3.00;3.00;;;;;18.98;56.46;100463.00;5063524;28;45702;-55
2021/08/08 05:57:38;;;;;;;;;6.00;5.33;;;;;18.99;56.50;100466.53;5064030;27;45487;-56
2021/08/08 06:00:04;;;;;;;;;2.00;2.00;;;;;19.02;56.60;100469.91;5057194;28;48090;-56
2021/08/08 06:02:29;;;;;;;;;3.00;3.00;;;;;19.03;56.14;100468.94;5061438;27;45515;-56
2021/08/08 06:04:55;;;;;;;;;5.00;4.33;;;;;19.03;56.30;100470.78;5056409;28;46255;-56
2021/08/08 06:07:20;;;;;;;;;6.00;4.67;;;;;19.03;56.42;100477.00;5057192;28;45254;-56
2021/08/08 06:09:46;;;;;;;;;3.67;3.67;;;;;19.04;56.43;100486.81;5063020;28;47183;-55
2021/08/08 06:12:11;;;;;;;;;3.33;3.33;;;;;19.07;56.49;100483.97;5060181;27;45405;-55
2021/08/08 06:14:36;;;;;;;;;5.00;3.00;;;;;19.10;56.42;100482.91;5052024;28;45596;-56
2021/08/08 06:17:02;;;;;;;;;3.67;2.33;;;;;19.14;56.05;100480.88;5049075;28;45539;-56
2021/08/08 06:19:27;;;;;;;;;4.33;4.33;;;;;19.16;56.16;100489.72;5086351;27;48172;-56
2021/08/08 06:21:53;;;;;;;;;5.67;5.67;;;;;19.19;55.51;100486.88;5058419;28;45705;-56
2021/08/08 06:24:18;;;;;;;;;5.00;5.00;;;;;19.21;55.90;100488.50;5047719;28;45275;-56
2021/08/08 06:26:44;;;;;;;;;4.00;3.67;;;;;19.24;55.83;100496.38;5059112;28;45405;-57
2021/08/08 06:29:09;;;;;;;;;5.33;4.33;;;;;19.24;56.01;100495.50;5061021;28;47300;-57
2021/08/08 06:31:36;;;;;;;;;3.00;2.00;;;;;19.23;55.54;100491.97;5050346;28;45789;-56
2021/08/08 06:34:02;;;;;;;;;3.67;3.67;;;;;19.24;55.51;100499.06;5051855;28;45433;-56
2021/08/08 06:36:28;;;;;;;;;2.33;2.00;;;;;19.29;55.46;100501.47;5050100;27;45649;-54
2021/08/08 06:38:55;;;;;;;;;4.00;4.00;;;;;19.32;55.50;100498.63;5051407;28;47374;-54
2021/08/08 06:41:21;;;;;;;;;3.00;2.33;;;;;19.37;55.19;100504.56;5054705;28;46978;-55
2021/08/08 06:43:47;;;;;;;;;2.67;2.67;;;;;19.39;55.44;100510.72;5055482;28;45362;-55
2021/08/08 06:46:12;;;;;;;;;6.00;5.33;;;;;19.40;55.53;100512.44;5054321;28;45615;-56
2021/08/08 06:48:38;;;;;;;;;3.00;3.00;;;;;19.37;55.08;100513.50;5057309;28;47118;-55
2021/08/08 06:51:03;;;;;;;;;4.00;3.00;;;;;19.38;55.17;100520.59;5058859;28;45626;-55
2021/08/08 06:53:29;;;;;;;;;3.00;3.00;;;;;19.39;55.14;100521.47;5052889;28;45749;-57
2021/08/08 06:55:54;;;;;;;;;4.00;4.00;;;;;19.38;55.26;100519.75;5052958;28;45546;-54
2021/08/08 06:58:19;;;;;;;;;3.00;3.00;;;;;19.38;54.70;100506.28;5056418;28;47188;-57
2021/08/08 07:00:45;;;;;;;;;5.33;4.00;;;;;19.35;54.76;100517.25;5057632;27;45698;-56
2021/08/08 07:03:11;;;;;;;;;3.67;3.67;;;;;19.33;55.30;100509.28;5057023;28;45345;-57
2021/08/08 07:05:37;;;;;;;;;4.00;4.00;;;;;19.36;55.05;100522.53;5059164;28;45868;-57
2021/08/08 07:08:04;;;;;;;;;4.00;3.00;;;;;19.38;54.74;100526.00;5067288;27;47910;-55
2021/08/08 07:10:29;;;;;;;;;3.00;3.00;;;;;19.39;54.89;100526.84;5052315;28;45618;-56
2021/08/08 07:12:55;;;;;;;;;3.00;3.00;;;;;19.36;54.69;100538.69;5060408;28;45501;-55
2021/08/08 07:15:20;;;;;;;;;5.00;4.00;;;;;19.40;54.69;100531.28;5050341;27;45728;-55
2021/08/08 07:17:46;;;;;;;;;4.00;4.00;;;;;19.45;54.38;100526.50;5057728;28;47262;-56
2021/08/08 07:20:12;;;;;;;;;4.00;4.00;;;;;19.50;54.65;100521.69;5055809;28;45711;-55
2021/08/08 07:22:38;;;;;;;;;4.00;4.00;;;;;19.55;54.50;100529.50;5063109;28;45411;-55
2021/08/08 07:25:04;;;;;;;;;3.00;3.00;;;;;19.61;54.23;100532.69;5051488;28;45415;-52
2021/08/08 07:27:29;;;;;;;;;3.67;3.67;;;;;19.67;54.30;100534.13;5074587;27;46905;-55
2021/08/08 07:29:54;;;;;;;;;4.00;3.33;;;;;19.71;54.09;100541.06;5057492;28;45231;-54
2021/08/08 07:32:20;;;;;;;;;5.00;3.00;;;;;19.78;54.25;100536.16;5077218;27;45701;-54
2021/08/08 07:34:45;;;;;;;;;5.00;5.00;;;;;19.81;54.18;100550.28;5046152;27;46870;-54
2021/08/08 07:37:11;;;;;;;;;3.00;3.00;;;;;19.84;54.18;100541.16;5065323;28;47163;-54
2021/08/08 07:39:37;;;;;;;;;7.33;3.67;;;;;19.86;53.83;100536.53;5057011;27;45333;-55
2021/08/08 07:42:03;;;;;;;;;4.33;4.00;;;;;19.86;54.21;100542.78;5075222;27;46437;-55
2021/08/08 07:44:28;;;;;;;;;4.00;4.00;;;;;19.89;53.96;100544.41;5057629;28;45487;-55
2021/08/08 07:46:54;;;;;;;;;2.00;1.67;;;;;19.94;53.90;100548.53;5057227;28;47740;-53
2021/08/08 07:49:19;;;;;;;;;6.67;6.00;;;;;19.98;53.75;100551.94;5056701;28;45492;-54
2021/08/08 07:51:46;;;;;;;;;5.67;5.00;;;;;20.03;53.69;100551.63;5060043;28;45485;-54
2021/08/08 07:54:11;;;;;;;;;3.00;3.00;;;;;20.04;53.09;100556.91;5053378;28;45486;-54
2021/08/08 07:56:37;;;;;;;;;5.33;5.00;;;;;20.06;53.31;100551.41;5050484;28;47839;-56
2021/08/08 07:59:02;;;;;;;;;3.00;2.67;;;;;20.08;53.05;100553.09;5062530;28;45384;-54
2021/08/08 08:01:28;;;;;;;;;4.00;4.00;;;;;20.09;53.15;100562.03;5050915;27;45384;-53
2021/08/08 08:03:53;;;;;;;;;6.67;5.67;;;;;20.09;53.43;100565.59;5061591;28;45776;-52
2021/08/08 08:06:19;;;;;;;;;7.33;4.00;;;;;20.12;53.15;100564.53;5058110;28;47214;-54
2021/08/08 08:08:44;;;;;;;;;4.33;4.33;;;;;20.13;53.38;100574.31;5054422;28;46229;-56
2021/08/08 08:11:10;;;;;;;;;5.00;5.00;;;;;20.13;52.72;100575.19;5058866;28;45685;-54
2021/08/08 08:13:36;;;;;;;;;2.00;2.00;;;;;20.11;52.88;100576.25;5061152;28;45544;-54
2021/08/08 08:16:01;;;;;;;;;4.67;3.33;;;;;20.08;53.07;100581.84;5048374;28;48247;-54
2021/08/08 08:18:27;;;;;;;;;6.33;6.33;;;;;20.06;53.13;100575.66;5058344;28;45843;-55
2021/08/08 08:20:53;;;;;;;;;3.67;3.67;;;;;20.04;52.87;100589.25;5063742;27;45792;-55
2021/08/08 08:23:20;;;;;;;;;4.33;3.00;;;;;20.05;52.90;100580.19;5052949;28;45405;-55
2021/08/08 08:25:46;;;;;;;;;5.33;5.33;;;;;20.09;53.50;100589.84;5052283;27;47275;-54
2021/08/08 08:28:12;;;;;;;;;4.00;4.00;;;;;20.10;53.21;100586.19;5055611;28;45948;-53
2021/08/08 08:30:39;;;;;;;;;3.00;3.00;;;;;20.13;53.30;100593.19;5057792;28;45860;-56
2021/08/08 08:33:06;;;;;;;;;4.00;4.00;;;;;20.14;53.13;100598.47;5059836;28;45216;-56
2021/08/08 08:35:32;;;;;;;;;3.00;3.00;;;;;20.14;53.02;100598.47;5074197;27;45416;-55
2021/08/08 08:37:59;;;;;;;;;5.67;4.67;;;;;20.12;52.93;100603.09;5054723;28;45587;-56
2021/08/08 08:40:26;;;;;;;;;5.33;4.00;;;;;20.14;53.06;100603.00;5056788;28;45591;-55
2021/08/08 08:42:56;;;;;;;;;3.33;3.33;;;;;20.17;53.13;100592.03;5056412;28;45804;-57
2021/08/08 08:45:22;;;;;;;;;5.67;5.67;;;;;20.19;52.70;100608.94;5062036;27;46748;-55
2021/08/08 08:47:48;;;;;;;;;5.67;4.33;;;;;20.18;52.65;100605.38;5051130;28;46354;-55
2021/08/08 08:50:14;;;;;;;;;3.33;3.33;;;;;20.19;52.72;100599.03;5053466;28;45511;-55
2021/08/08 08:52:40;;;;;;;;;4.00;4.00;;;;;20.19;52.83;100604.44;5063899;28;45670;-54
2021/08/08 08:55:07;;;;;;;;;3.00;3.00;;;;;20.18;52.59;100599.13;5052761;28;47313;-53
2021/08/08 08:57:35;;;;;;;;;5.00;5.00;;;;;20.23;52.86;100597.91;5058224;28;45456;-55
2021/08/08 09:00:04;;;;;;;;;4.00;3.00;;;;;20.29;52.33;100602.88;5061477;28;45854;-54
2021/08/08 09:02:30;;;;;;;;;3.00;3.00;;;;;20.33;52.68;100603.56;5055914;28;45879;-56
2021/08/08 09:04:55;;;;;;;;;3.33;3.33;;;;;20.39;52.41;100607.69;5057586;28;49592;-56
2021/08/08 09:07:21;;;;;;;;;4.00;4.00;;;;;20.43;52.05;100607.44;5056164;27;45389;-55
2021/08/08 09:09:46;;;;;;;;;4.00;4.00;;;;;20.50;52.34;100616.00;5048218;27;45463;-55
2021/08/08 09:12:22;;;;;;;;;4.67;4.00;;;;;20.54;52.08;100596.81;5057535;28;45443;-54
2021/08/08 09:15:11;;;;;;;;;5.00;5.00;;;;;20.56;51.52;100621.84;5056036;28;46900;-54
2021/08/08 09:17:40;;;;;;;;;8.00;8.00;;;;;20.53;51.57;100619.34;5051044;28;45393;-55
2021/08/08 09:20:11;;;;;;;;;4.67;3.33;;;;;20.55;51.54;100617.41;5042019;28;45319;-56
2021/08/08 09:22:38;;;;;;;;;3.33;3.33;;;;;20.57;50.74;100625.41;5080860;27;45879;-54
2021/08/08 09:25:05;;;;;;;;;4.67;3.67;;;;;20.53;50.77;100621.19;5065910;28;47057;-55
2021/08/08 09:27:34;;;;;;;;;2.00;2.00;;;;;20.46;50.60;100626.13;5060179;28;45694;-56
2021/08/08 09:30:00;;;;;;;;;2.33;2.33;;;;;20.43;50.95;100623.59;5046473;28;45790;-53
2021/08/08 09:32:33;;;;;;;;;4.33;4.33;;;;;20.40;50.52;100622.91;5056680;28;45381;-51
2021/08/08 09:35:08;;;;;;;;;2.67;2.67;;;;;20.34;50.64;100624.19;5062466;28;48518;-53
2021/08/08 09:37:35;;;;;;;;;4.67;4.00;;;;;20.31;50.75;100615.41;5055692;28;45466;-55
2021/08/08 09:40:02;;;;;;;;;4.00;4.00;;;;;20.30;50.68;100633.41;5064681;27;45362;-54
2021/08/08 09:42:30;;;;;;;;;4.00;4.00;;;;;20.27;50.18;100625.50;5061081;28;45500;-54
2021/08/08 09:45:01;;;;;;;;;3.67;3.67;;;;;20.32;50.27;100626.06;5057724;28;47210;-55
2021/08/08 09:47:48;;;;;;;;;6.67;4.00;;;;;20.38;50.10;100628.41;5064583;27;45842;-54
2021/08/08 09:50:15;;;;;;;;;2.33;2.33;;;;;20.40;49.58;100625.59;5065850;28;45419;-54
2021/08/08 09:52:55;;;;;;;;;4.00;4.00;;;;;20.40;50.08;100629.16;5053842;27;45370;-55
2021/08/08 09:55:31;;;;;;;;;2.33;2.33;;;;;20.52;49.55;100632.94;5047250;28;47106;-54
2021/08/08 09:57:57;;;;;;;;;3.67;3.67;;;;;20.63;49.98;100625.03;5060353;28;45700;-54
2021/08/08 10:00:24;;;;;;;;;5.00;5.00;;;;;20.80;49.57;100629.31;5057243;28;45436;-55
2021/08/08 10:02:50;;;;;;;;;5.00;5.00;;;;;20.94;49.27;100639.19;5058505;28;45572;-54
2021/08/08 10:05:16;;;;;;;;;4.00;4.00;;;;;21.04;48.50;100630.38;5071409;27;48099;-56
2021/08/08 10:07:42;;;;;;;;;3.00;3.00;;;;;21.17;49.02;100633.13;5053651;28;45408;-54
2021/08/08 10:10:08;;;;;;;;;4.00;4.00;;;;;21.26;48.49;100629.84;5052262;28;45574;-54
2021/08/08 10:12:51;;;;;;;;;3.00;3.00;;;;;21.28;48.44;100641.41;5056368;28;47015;-55
2021/08/08 10:15:18;;;;;;;;;4.33;3.33;;;;;21.25;47.80;100641.63;5060493;28;46778;-55
2021/08/08 10:17:44;;;;;;;;;5.00;4.67;;;;;21.20;48.33;100635.63;5051554;28;45812;-56
2021/08/08 10:20:11;;;;;;;;;2.67;2.67;;;;;21.15;47.80;100640.47;5051565;27;45545;-55
2021/08/08 10:22:42;;;;;;;;;3.67;3.33;;;;;21.08;47.61;100642.69;5056789;28;45420;-54
2021/08/08 10:25:08;;;;;;;;;6.00;5.67;;;;;21.04;47.80;100649.28;5056044;28;48372;-56
2021/08/08 10:27:34;;;;;;;;;4.00;4.00;;;;;21.03;47.57;100641.28;5058021;28;46021;-54
2021/08/08 10:30:02;;;;;;;;;4.33;4.33;;;;;21.08;47.63;100644.53;5058917;28;45566;-56
2021/08/08 10:32:29;;;;;;;;;3.67;3.67;;;;;21.17;47.63;100652.88;5057125;28;45764;-53
2021/08/08 10:34:55;;;;;;;;;3.00;3.00;;;;;21.26;47.60;100651.44;5058609;28;47109;-55
2021/08/08 10:37:25;;;;;;;;;3.33;3.00;;;;;21.42;47.13;100660.22;5050887;28;45926;-55
2021/08/08 10:39:51;;;;;;;;;5.00;4.33;;;;;21.55;46.46;100646.75;5053101;28;45378;-55
2021/08/08 10:42:21;;;;;;;;;2.00;2.00;;;;;21.61;45.90;100643.66;5046459;28;46118;-56
2021/08/08 10:44:53;;;;;;;;;2.33;2.33;;;;;21.63;46.08;100648.94;5047107;28;48331;-55
2021/08/08 10:47:30;;;;;;;;;2.67;2.67;;;;;21.60;45.79;100644.63;5054170;28;45425;-54
2021/08/08 10:50:08;;;;;;;;;2.33;2.33;;;;;21.58;45.58;100641.16;5048860;28;45667;-56
2021/08/08 10:52:40;;;;;;;;;2.00;2.00;;;;;21.62;45.91;100645.38;5058020;28;45587;-54
2021/08/08 10:55:07;;;;;;;;;4.33;3.33;;;;;21.58;45.70;100654.66;5050525;28;47434;-56
2021/08/08 10:57:43;;;;;;;;;9.00;9.00;;;;;21.55;45.90;100654.00;5050953;28;46858;-59
2021/08/08 11:00:13;;;;;;;;;4.00;4.00;;;;;21.60;46.73;100655.44;5048316;28;45283;-59
2021/08/08 11:02:39;;;;;;;;;6.33;6.33;;;;;21.65;46.43;100642.47;5052062;27;45868;-58
2021/08/08 11:05:33;;;;;;;;;4.00;4.00;;;;;21.70;46.56;100639.44;5054555;28;46151;-59
2021/08/08 11:08:00;;;;;;;;;5.33;5.33;;;;;21.79;46.02;100646.91;5047774;28;45824;-59
2021/08/08 11:10:27;;;;;;;;;13.75;13.75;;;;;21.90;46.20;100635.38;5057706;28;45464;-60
2021/08/08 11:12:53;;;;;;;;;17.25;16.00;;;;;21.96;45.82;100641.19;5050030;28;45427;-60
2021/08/08 11:15:18;;;;;;;;;10.50;9.25;;;;;22.01;46.29;100641.75;5058120;28;47544;-59
2021/08/08 11:17:47;;;;;;;;;7.00;7.00;;;;;22.14;46.01;100639.06;5056782;28;45699;-59
2021/08/08 11:20:13;;;;;;;;;9.33;7.33;;;;;22.25;45.85;100639.19;5056282;28;45412;-60
2021/08/08 11:22:39;;;;;;;;;5.33;5.33;;;;;22.35;44.71;100635.78;5053961;28;46392;-59